Time;durP1;ratioP1;P1;durP2;ratioP2;P2;SDS_P1;SDS_P2;PMS_P1;PMS_P2;Temp;Humidity;BMP_temperature;BMP_pressure;BME280_temperature;BME280_humidity;BME280_pressure;Samples;Min_cycle;Max_cycle;Signal;HPM_P1;HPM_P2
2023/08/19 15:13:30;;;;;;;5.88;5.13;;;;;;;20.02;100.00;101433.28;21292204;27;21087;-66
2023/08/19 15:23:32;;;;;;;7.60;5.07;;;;;;;20.13;100.00;101441.28;21194031;27;20433;-69
2023/08/19 15:33:34;;;;;;;8.63;5.63;;;;;;;20.23;100.00;101456.66;21203150;27;20051;-65
2023/08/19 15:43:36;;;;;;;7.60;5.00;;;;;;;20.37;100.00;101459.00;21222306;27;20059;-65
2023/08/19 15:53:39;;;;;;;6.50;4.80;;;;;;;20.48;100.00;101471.50;21227953;27;20038;-64
2023/08/19 16:03:41;;;;;;;5.55;4.82;;;;;;;20.56;100.00;101478.94;21206847;27;20074;-65
2023/08/19 16:13:42;;;;;;;6.10;4.55;;;;;;;20.60;100.00;101480.38;21198943;28;20039;-65
2023/08/19 16:23:45;;;;;;;5.60;4.15;;;;;;;20.67;100.00;101469.84;21154489;27;20056;-64
2023/08/19 16:33:46;;;;;;;4.07;3.67;;;;;;;20.73;100.00;101472.81;21182615;27;20358;-66
2023/08/19 16:43:58;;;;;;;5.90;3.67;;;;;;;20.79;100.00;101501.22;21184111;27;20048;-66
2023/08/19 16:54:40;;;;;;;4.53;3.80;;;;;;;20.84;100.00;101506.22;21180587;27;20043;-68
2023/08/19 17:04:46;;;;;;;6.35;4.07;;;;;;;20.88;100.00;101514.88;21188284;27;20056;-67
2023/08/19 17:14:48;;;;;;;7.20;5.28;;;;;;;20.91;100.00;101528.13;21162031;27;20807;-68
2023/08/19 17:24:50;;;;;;;8.73;5.47;;;;;;;20.94;100.00;101541.38;21111436;27;20062;-67
2023/08/19 17:34:53;;;;;;;6.70;5.32;;;;;;;20.99;100.00;101556.22;21137210;27;20051;-67
2023/08/19 17:44:55;;;;;;;5.50;4.80;;;;;;;21.06;100.00;101566.47;21173444;27;20066;-68
2023/08/19 17:54:56;;;;;;;5.75;4.32;;;;;;;21.09;100.00;101571.59;21175073;27;20914;-69
2023/08/19 18:04:58;;;;;;;5.88;3.85;;;;;;;21.05;100.00;101589.13;21191743;27;20501;-66
2023/08/19 18:15:02;;;;;;;5.25;3.55;;;;;;;20.92;100.00;101587.56;21176459;27;20043;-65
2023/08/19 18:25:04;;;;;;;6.93;3.72;;;;;;;20.82;100.00;101608.34;21163137;27;20062;-65
2023/08/19 18:35:06;;;;;;;4.22;2.90;;;;;;;20.73;100.00;101621.63;21204650;27;20054;-65
2023/08/19 18:45:10;;;;;;;3.08;2.58;;;;;;;20.68;100.00;101634.72;21156632;28;20404;-66
2023/08/19 18:55:12;;;;;;;5.80;2.80;;;;;;;20.64;100.00;101638.69;21155682;28;20051;-66
2023/08/19 19:05:13;;;;;;;6.28;2.90;;;;;;;20.61;100.00;101655.22;21133576;28;20051;-65
2023/08/19 19:15:17;;;;;;;4.20;2.50;;;;;;;20.54;100.00;101654.03;21153994;28;20048;-66
2023/08/19 19:25:20;;;;;;;4.50;2.55;;;;;;;20.54;100.00;101681.09;21154200;28;20052;-66
2023/08/19 19:35:22;;;;;;;4.15;2.35;;;;;;;20.50;100.00;101683.19;21122306;28;20052;-69
2023/08/19 19:45:24;;;;;;;4.60;2.20;;;;;;;20.47;100.00;101679.94;21155368;28;20056;-68
2023/08/19 19:55:26;;;;;;;3.33;1.88;;;;;;;20.43;100.00;101690.16;21162548;28;20051;-66
2023/08/19 20:05:27;;;;;;;3.15;2.00;;;;;;;20.39;100.00;101694.09;21171199;28;20191;-66
2023/08/19 20:15:29;;;;;;;2.25;1.83;;;;;;;20.26;100.00;101681.66;21169670;28;20048;-66
2023/08/19 20:25:31;;;;;;;4.88;2.15;;;;;;;20.29;100.00;101691.34;21168911;28;20046;-67
2023/08/19 20:35:35;;;;;;;5.68;2.75;;;;;;;20.26;100.00;101702.41;21154530;28;20056;-68
2023/08/19 20:45:37;;;;;;;4.27;1.80;;;;;;;20.23;100.00;101710.78;21082515;28;20047;-68
2023/08/19 20:55:39;;;;;;;2.00;1.70;;;;;;;20.17;100.00;101701.38;21082412;28;20484;-66
2023/08/19 21:05:42;;;;;;;2.45;1.83;;;;;;;20.18;100.00;101699.53;21130377;28;20078;-66
2023/08/19 21:15:43;;;;;;;2.22;1.50;;;;;;;20.14;100.00;101707.91;21164141;28;20052;-68
2023/08/19 21:25:46;;;;;;;5.43;1.55;;;;;;;20.13;100.00;101705.34;21163772;28;20419;-68
2023/08/19 21:35:52;;;;;;;3.22;1.40;;;;;;;20.13;100.00;101719.72;21162419;28;20047;-68
2023/08/19 21:45:58;;;;;;;3.85;1.52;;;;;;;20.12;100.00;101726.09;21160825;28;20061;-68
2023/08/19 21:56:00;;;;;;;2.25;1.27;;;;;;;20.10;100.00;101732.63;21162067;28;20055;-68
2023/08/19 22:06:04;;;;;;;2.38;1.38;;;;;;;20.09;100.00;101748.00;21160124;28;20051;-68
2023/08/19 22:16:06;;;;;;;2.20;1.50;;;;;;;20.07;100.00;101752.66;21158933;28;20055;-68
2023/08/19 22:26:08;;;;;;;2.25;1.40;;;;;;;20.05;100.00;101754.66;21158680;28;20051;-68
2023/08/19 22:36:10;;;;;;;2.70;1.60;;;;;;;20.02;100.00;101743.22;21157656;28;20062;-68
2023/08/19 22:46:11;;;;;;;3.35;1.75;;;;;;;19.99;100.00;101741.66;21157521;28;20086;-68
2023/08/19 22:56:13;;;;;;;3.20;1.85;;;;;;;19.97;100.00;101749.03;21157382;28;20059;-68
2023/08/19 23:06:15;;;;;;;2.30;1.20;;;;;;;19.94;100.00;101739.34;21155986;28;20052;-68
2023/08/19 23:16:17;;;;;;;2.35;1.23;;;;;;;19.93;100.00;101747.59;21156722;28;20052;-68
2023/08/19 23:26:20;;;;;;;1.85;1.20;;;;;;;19.91;100.00;101754.97;21157385;28;20109;-68
2023/08/19 23:36:21;;;;;;;1.73;0.90;;;;;;;19.91;100.00;101754.97;21171470;28;20464;-68
2023/08/19 23:46:23;;;;;;;1.45;1.08;;;;;;;19.90;100.00;101745.09;21172034;28;20176;-68
2023/08/19 23:56:26;;;;;;;2.05;1.10;;;;;;;19.88;100.00;101744.34;21170181;28;20507;-68
